<?xml version="1.0" encoding="utf-8"?>
<gpx xmlns:xsi="http://www.w3.org/2001/XMLSchema-instance" xmlns:xsd="http://www.w3.org/2001/XMLSchema" version="1.1" creator="Shapelink.com" xmlns="http://www.topografix.com/GPX/1/1" xmlns:gpxtpx="http://www.garmin.com/xmlschemas/TrackPointExtension/v1">
  <metadata>
    <name>Övrigt 1.31 km, 2020-07-05</name>
    <desc></desc>
    <author><name>Marian Moron</name></author> 
    <time>2020-07-05T21:06:42Z</time>
  </metadata>
  <trk>
    <name>Övrigt 1.31 km, 2020-07-05</name>
    <trkseg>
      <trkpt lat="51.229310051033" lon="4.458294137079">
        <ele>0</ele>
        <time>2020-07-05T21:06:42Z</time>
      </trkpt>
      <trkpt lat="51.229066305381" lon="4.458299333857">
        <ele>6.4</ele>
        <time>2020-07-05T21:07:04Z</time>
      </trkpt>
      <trkpt lat="51.228660034688" lon="4.4583829014">
        <ele>10.2</ele>
        <time>2020-07-05T21:07:34Z</time>
      </trkpt>
      <trkpt lat="51.22865819067" lon="4.458436964655">
        <ele>10.6</ele>
        <time>2020-07-05T21:07:37Z</time>
      </trkpt>
      <trkpt lat="51.228609827107" lon="4.45891431386">
        <ele>16.8</ele>
        <time>2020-07-05T21:08:31Z</time>
      </trkpt>
      <trkpt lat="51.228670931158" lon="4.45898807458">
        <ele>20</ele>
        <time>2020-07-05T21:08:41Z</time>
      </trkpt>
      <trkpt lat="51.228689706614" lon="4.459078096186">
        <ele>20.6</ele>
        <time>2020-07-05T21:08:49Z</time>
      </trkpt>
      <trkpt lat="51.228638996119" lon="4.459416976403">
        <ele>19.2</ele>
        <time>2020-07-05T21:09:14Z</time>
      </trkpt>
      <trkpt lat="51.22845702507" lon="4.459705146125">
        <ele>19.6</ele>
        <time>2020-07-05T21:10:10Z</time>
      </trkpt>
      <trkpt lat="51.228482422227" lon="4.459884854061">
        <ele>18.6</ele>
        <time>2020-07-05T21:10:25Z</time>
      </trkpt>
      <trkpt lat="51.228441015641" lon="4.46024787415">
        <ele>17.4</ele>
        <time>2020-07-05T21:10:49Z</time>
      </trkpt>
      <trkpt lat="51.228350910216" lon="4.460431689217">
        <ele>16.6</ele>
        <time>2020-07-05T21:11:01Z</time>
      </trkpt>
      <trkpt lat="51.22829106345" lon="4.460574684431">
        <ele>17</ele>
        <time>2020-07-05T21:11:43Z</time>
      </trkpt>
      <trkpt lat="51.228429532438" lon="4.460868302388">
        <ele>19.6</ele>
        <time>2020-07-05T21:12:26Z</time>
      </trkpt>
      <trkpt lat="51.228636313911" lon="4.460981458038">
        <ele>12</ele>
        <time>2020-07-05T21:12:58Z</time>
      </trkpt>
      <trkpt lat="51.22905884549" lon="4.461405163083">
        <ele>29</ele>
        <time>2020-07-05T21:13:45Z</time>
      </trkpt>
      <trkpt lat="51.229466122011" lon="4.461128644202">
        <ele>18.8</ele>
        <time>2020-07-05T21:14:10Z</time>
      </trkpt>
      <trkpt lat="51.229623869369" lon="4.461054045292">
        <ele>16.2</ele>
        <time>2020-07-05T21:14:20Z</time>
      </trkpt>
      <trkpt lat="51.22968581161" lon="4.461068797436">
        <ele>21.8</ele>
        <time>2020-07-05T21:14:31Z</time>
      </trkpt>
      <trkpt lat="51.22992637214" lon="4.461629378908">
        <ele>20.8</ele>
        <time>2020-07-05T21:15:09Z</time>
      </trkpt>
      <trkpt lat="51.230133069794" lon="4.462111086701">
        <ele>16.4</ele>
        <time>2020-07-05T21:15:46Z</time>
      </trkpt>
      <trkpt lat="51.230238514096" lon="4.462092981797">
        <ele>20</ele>
        <time>2020-07-05T21:16:02Z</time>
      </trkpt>
      <trkpt lat="51.230690130868" lon="4.461989381513">
        <ele>34.2</ele>
        <time>2020-07-05T21:16:40Z</time>
      </trkpt>
      <trkpt lat="51.23110989642" lon="4.461810847043">
        <ele>33.6</ele>
        <time>2020-07-05T21:17:29Z</time>
      </trkpt>
      <trkpt lat="51.230867240415" lon="4.46147246974">
        <ele>8.2</ele>
        <time>2020-07-05T21:18:52Z</time>
      </trkpt>
      <trkpt lat="51.230727933237" lon="4.460861261592">
        <ele>3</ele>
        <time>2020-07-05T21:20:36Z</time>
      </trkpt>
      <trkpt lat="51.230725251029" lon="4.460795966591">
        <ele>2.4</ele>
        <time>2020-07-05T21:20:40Z</time>
      </trkpt>
      <trkpt lat="51.230773698411" lon="4.460439735841">
        <ele>6.8</ele>
        <time>2020-07-05T21:21:13Z</time>
      </trkpt>
      <trkpt lat="51.230765819425" lon="4.460342254344">
        <ele>7.4</ele>
        <time>2020-07-05T21:21:21Z</time>
      </trkpt>
      <trkpt lat="51.230608491162" lon="4.459908239562">
        <ele>3.2</ele>
        <time>2020-07-05T21:21:57Z</time>
      </trkpt>
      <trkpt lat="51.230664146978" lon="4.459802962898">
        <ele>4.8</ele>
        <time>2020-07-05T21:22:10Z</time>
      </trkpt>
      <trkpt lat="51.231101179244" lon="4.459627026817">
        <ele>3.8</ele>
        <time>2020-07-05T21:22:47Z</time>
      </trkpt>
      <trkpt lat="51.231453973415" lon="4.459632307414">
        <ele>14.2</ele>
        <time>2020-07-05T21:23:14Z</time>
      </trkpt>
      <trkpt lat="51.231472497414" lon="4.459634486708">
        <ele>14.2</ele>
        <time>2020-07-05T21:23:17Z</time>
      </trkpt>
      <trkpt lat="51.231680787629" lon="4.459609592465">
        <ele>13.2</ele>
        <time>2020-07-05T21:23:37Z</time>
      </trkpt>
      <trkpt lat="51.231695539773" lon="4.459492245865">
        <ele>12.6</ele>
        <time>2020-07-05T21:23:54Z</time>
      </trkpt>
      <trkpt lat="51.231547934514" lon="4.45879948183">
        <ele>5.8</ele>
        <time>2020-07-05T21:24:29Z</time>
      </trkpt>
      <trkpt lat="51.231536451311" lon="4.458760841271">
        <ele>5.8</ele>
        <time>2020-07-05T21:24:31Z</time>
      </trkpt>
      <trkpt lat="51.231436203787" lon="4.458489770625">
        <ele>9.2</ele>
        <time>2020-07-05T21:25:02Z</time>
      </trkpt>
      <trkpt lat="51.231387588767" lon="4.458518352904">
        <ele>10.2</ele>
        <time>2020-07-05T21:25:07Z</time>
      </trkpt>
      <trkpt lat="51.2312792108" lon="4.458585491923">
        <ele>7.4</ele>
        <time>2020-07-05T21:25:21Z</time>
      </trkpt>
      <trkpt lat="51.230851650081" lon="4.458806438807">
        <ele>10.8</ele>
        <time>2020-07-05T21:25:57Z</time>
      </trkpt>
      <trkpt lat="51.230548476758" lon="4.458796464346">
        <ele>12</ele>
        <time>2020-07-05T21:26:24Z</time>
      </trkpt>
      <trkpt lat="51.230493742951" lon="4.458740640892">
        <ele>13</ele>
        <time>2020-07-05T21:26:32Z</time>
      </trkpt>
      <trkpt lat="51.230315795214" lon="4.458840469321">
        <ele>17.8</ele>
        <time>2020-07-05T21:27:10Z</time>
      </trkpt>
      <trkpt lat="51.229953026582" lon="4.458755812131">
        <ele>1.8</ele>
        <time>2020-07-05T21:27:56Z</time>
      </trkpt>
      <trkpt lat="51.229923438475" lon="4.458456997396">
        <ele>0</ele>
        <time>2020-07-05T21:28:18Z</time>
      </trkpt>
      <trkpt lat="51.229823190951" lon="4.457980067286">
        <ele>11.2</ele>
        <time>2020-07-05T21:28:48Z</time>
      </trkpt>
      <trkpt lat="51.229726212368" lon="4.457981156933">
        <ele>18.6</ele>
        <time>2020-07-05T21:29:30Z</time>
      </trkpt>
    </trkseg>
  </trk>
</gpx>